메인 페이지
METAR-TAF:

METAR-TAF

공항 :

Los Alamitos Army Airfield

Los Alamitos, 캘리포니아, 미국

위도: 33-47N, 경도: 118-03W, 고도: 11m

현재 날씨관측

예보는 50분 전, 18:55시(UTC)에 발표되었습니다.
남서6kt
온도 21°C
습도 69%
기압 1011 hPa
시정: 9.7km
고도 1700ft 상공 흐림
연무

METAR: KSLI 191855Z AUTO 23006KT 6SM HZ OVC017 21/15 A2984 RMK AO2 SLP108 T02080151

시각: 12:45 (19:45 UTC)

예보

예보는 5 시간 54분 전, 13:51시(UTC)에 발표되었습니다.
예보 대상 시간: 19일 13시부터 20일 19시까지 (UTC)
여러 방향의 바람 6kt
시정: 8000m
고도 1200ft 상공 흐림
연무
전환 중
19일 17시부터 19일 18시까지 (UTC)
여러 방향의 바람 6kt
시정: 8000m
고도 900ft 상공 구름 보통
고도 1600ft 상공 구름 많음
박무
전환 중
19일 18시부터 19일 19시까지 (UTC)
여러 방향의 바람 6kt
시정: 9000m
고도 1700ft 상공 구름 보통
박무,

TAF: KSLI 191351Z 1913/2019 VRB06KT 8000 HZ OVC012 QNH2981INS BECMG 1917/1918 VRB06KT 8000 BR SCT009 BKN016 QNH2985INS BECMG 1918/1919 VRB06KT 9000 BR SCT017 QNH2976INS TX23/1923Z TN16/1914Z

4,000개 이상의 공항 관측 자료 및 예보 (METAR 및 TAF 보고).

지도상에서 검색 가능한 기상관측소가 노란 점과 빨간 점으로 표시되어 있습니다.

기상관측소 명을 보려면 표시 위로 마우스를 이동하세요.

날씨 관측과 예보를 보려면 클릭하세요.

지도 변경 : 확대하려면 엑스 표시가 있는 녹색 버튼, 축소하려면 빼기 표시가 있는 녹색 버튼, 다음 페이지의 지도를 보려면 녹색 화살표를 클릭하세요.


METAR-TAF: